Overview Statistics Trail Chart Weather Telemetry Raw packets
 

This is the latest recevied weather packets stored in our database for station/object ac2ev. If no packets are shown the sender has not sent any weather packets the latest 10 day(s).

<< 104 105 106 107 108 109 110 >>
Time Temp. Humidity Pressure Rain* Wind** Luminosity Snow
1787862961 24.44° C 75% 1011 hPa 0 mm - - -
1787862661 24.44° C 74% 1011 hPa 0 mm - - -
1787862361 25° C 73% 1011 hPa 0 mm - - -
1787862061 25° C 72% 1010.9 hPa 0 mm - - -
1787861761 24.44° C 72% 1011 hPa 0 mm - - -
1787861461 24.44° C 71% 1011 hPa 0 mm - - -
1787861161 24.44° C 71% 1010.9 hPa 0 mm - - -
1787860861 24.44° C 71% 1011 hPa 0 mm - - -
1787860561 24.44° C 72% 1011 hPa 0 mm - - -
1787860261 23.89° C 73% 1011 hPa 0 mm - - -
1787859983 23.33° C 76% 1011 hPa 0 mm - - -
1787859661 22.78° C 77% 1011 hPa 0 mm - - -
1787859361 22.78° C 79% 1011.1 hPa 0 mm - - -
1787859061 22.22° C 81% 1011.1 hPa 0 mm - - -
1787858762 22.22° C 80% 1011.2 hPa 0 mm - - -
1787858461 22.78° C 78% 1011.5 hPa 0 mm - - -
1787858161 22.78° C 79% 1011.5 hPa 0 mm - - -
1787857861 22.78° C 80% 1011.8 hPa 0 mm - - -
1787857561 22.22° C 79% 1011.7 hPa 0 mm - - -
1787857258 22.78° C 78% 1011.8 hPa 0 mm - - -
1787856958 22.78° C 79% 1011.8 hPa 0 mm - - -
1787856659 22.78° C 78% 1011.9 hPa 0 mm - - -
1787856358 23.33° C 76% 1011.9 hPa 0 mm - - -
1787856054 23.89° C 75% 1011.8 hPa 0 mm - - -
1787855779 24.44° C 75% 1011.4 hPa 0 mm - - -

* Rain latest hour (hover to see other rain measurements)
** Current wind speed in m/s (hover to see current wind gust speed)